createdAt,value
2018-12-24T00:02:27.807Z,9.37
2018-12-24T00:04:56.613Z,7.53
2018-12-24T00:07:25.858Z,6.17
2018-12-24T00:09:54.641Z,7.10
2018-12-24T00:12:27.458Z,7.13
2018-12-24T00:14:56.253Z,6.73
2018-12-24T00:17:25.028Z,10.07
2018-12-24T00:19:53.810Z,8.30
2018-12-24T00:22:22.631Z,10.33
2018-12-24T00:24:52.396Z,7.97
2018-12-24T00:27:27.935Z,8.93
2018-12-24T00:29:56.727Z,10.60
2018-12-24T00:32:25.510Z,8.73
2018-12-24T00:34:54.295Z,20.83
2018-12-24T00:37:23.270Z,13.10
2018-12-24T00:39:52.056Z,10.47
2018-12-24T00:42:21.003Z,12.63
2018-12-24T00:44:49.904Z,10.03
2018-12-24T00:47:18.795Z,10.70
2018-12-24T00:49:47.600Z,11.43
2018-12-24T00:52:16.368Z,7.87
2018-12-24T00:54:45.296Z,10.10
2018-12-24T00:57:14.109Z,10.93
2018-12-24T00:59:42.994Z,9.17
2018-12-24T01:02:11.849Z,8.30
2018-12-24T01:04:41.631Z,9.63
2018-12-24T01:07:11.598Z,8.43
2018-12-24T01:09:40.376Z,6.23
2018-12-24T01:12:09.159Z,6.37
2018-12-24T01:14:37.941Z,9.53
2018-12-24T01:17:06.726Z,6.03
2018-12-24T01:19:35.515Z,7.30
2018-12-24T01:22:04.287Z,6.57
2018-12-24T01:24:33.201Z,5.70
2018-12-24T01:27:02.010Z,9.00
2018-12-24T01:29:30.873Z,7.63
2018-12-24T01:32:02.102Z,8.37
2018-12-24T01:34:30.935Z,9.13
2018-12-24T01:37:00.685Z,11.33
2018-12-24T01:39:28.846Z,9.83
2018-12-24T01:41:58.176Z,12.83
2018-12-24T01:44:27.031Z,8.30
2018-12-24T01:47:02.391Z,12.60
2018-12-24T01:49:31.312Z,9.37
2018-12-24T01:52:00.089Z,9.43
2018-12-24T01:54:28.892Z,9.80
2018-12-24T01:56:58.504Z,13.47
2018-12-24T01:59:28.236Z,7.83
2018-12-24T02:01:57.079Z,8.80
2018-12-24T02:04:25.851Z,15.87
2018-12-24T02:06:55.241Z,11.03
2018-12-24T02:09:23.994Z,10.30
2018-12-24T02:11:52.795Z,9.30
2018-12-24T02:14:21.588Z,6.43
2018-12-24T02:16:51.259Z,6.33
2018-12-24T02:19:20.109Z,12.77
2018-12-24T02:21:48.871Z,6.43
2018-12-24T02:24:17.642Z,8.33
2018-12-24T02:26:47.090Z,8.97
2018-12-24T02:29:15.908Z,7.47
2018-12-24T02:31:44.698Z,7.63
2018-12-24T02:34:13.558Z,8.07
2018-12-24T02:36:42.338Z,6.23
2018-12-24T02:39:11.122Z,5.20
2018-12-24T02:41:41.649Z,9.40
2018-12-24T02:44:10.427Z,7.50
2018-12-24T02:46:39.206Z,9.50
2018-12-24T02:49:08.039Z,7.23
2018-12-24T02:51:36.962Z,10.23
2018-12-24T02:54:05.720Z,7.77
2018-12-24T02:56:34.748Z,7.77
2018-12-24T02:59:03.830Z,4.97
2018-12-24T03:01:32.605Z,14.33
2018-12-24T03:04:02.169Z,5.60
2018-12-24T03:06:30.982Z,6.40
2018-12-24T03:09:00.776Z,8.30
2018-12-24T03:11:29.642Z,10.07
2018-12-24T03:13:58.468Z,4.33
2018-12-24T03:16:30.274Z,7.90
2018-12-24T03:18:59.523Z,7.50
2018-12-24T03:21:28.304Z,8.60
2018-12-24T03:23:58.077Z,8.10
2018-12-24T03:26:27.448Z,7.97
2018-12-24T03:28:56.210Z,6.40
2018-12-24T03:31:25.018Z,9.43
2018-12-24T03:33:53.804Z,10.07
2018-12-24T03:36:22.601Z,10.23
2018-12-24T03:38:51.400Z,7.33
2018-12-24T03:41:20.176Z,4.33
2018-12-24T03:43:49.740Z,5.43
2018-12-24T03:46:18.579Z,7.17
2018-12-24T03:48:47.353Z,6.50
2018-12-24T03:51:16.773Z,12.27
2018-12-24T03:53:45.594Z,6.07
2018-12-24T03:56:15.040Z,6.77
2018-12-24T03:58:43.875Z,10.80
2018-12-24T04:01:12.699Z,6.83
2018-12-24T04:03:41.487Z,13.13
2018-12-24T04:06:13.523Z,11.87
2018-12-24T04:08:42.967Z,6.00
2018-12-24T04:11:13.127Z,15.53
2018-12-24T04:13:42.903Z,6.87
2018-12-24T04:16:11.671Z,12.67
2018-12-24T04:18:40.576Z,7.63
2018-12-24T04:21:09.372Z,6.67
2018-12-24T04:23:38.204Z,13.47
2018-12-24T04:26:06.963Z,5.37
2018-12-24T04:28:37.219Z,10.00
2018-12-24T04:31:05.961Z,8.87
2018-12-24T04:33:34.767Z,9.70
2018-12-24T04:36:03.609Z,13.03
2018-12-24T04:38:32.477Z,11.03
2018-12-24T04:41:01.263Z,4.63
2018-12-24T04:43:32.383Z,11.73
2018-12-24T04:45:59.376Z,5.47
2018-12-24T04:48:28.135Z,13.13
2018-12-24T04:50:56.948Z,7.60
2018-12-24T04:53:26.263Z,10.73
2018-12-24T04:55:56.015Z,10.73
2018-12-24T04:58:25.731Z,11.57
2018-12-24T05:00:54.840Z,11.20
2018-12-24T05:03:23.775Z,12.47
2018-12-24T05:05:52.623Z,12.47
2018-12-24T05:08:21.539Z,6.73
2018-12-24T05:10:50.317Z,7.03
2018-12-24T05:13:19.080Z,19.53
2018-12-24T05:15:48.421Z,11.37
2018-12-24T05:18:17.266Z,11.70
2018-12-24T05:20:47.073Z,7.87
2018-12-24T05:23:16.376Z,12.63
2018-12-24T05:25:45.175Z,4.80
2018-12-24T05:28:14.072Z,8.83
2018-12-24T05:30:43.011Z,12.93
2018-12-24T05:33:11.805Z,5.53
2018-12-24T05:35:41.616Z,9.30
2018-12-24T05:38:10.384Z,7.97
2018-12-24T05:40:39.222Z,16.50
2018-12-24T05:43:08.634Z,13.40
2018-12-24T05:45:37.534Z,10.63
2018-12-24T05:48:06.334Z,8.30
2018-12-24T05:50:35.111Z,6.80
2018-12-24T05:53:04.492Z,7.63
2018-12-24T05:55:33.311Z,8.27
2018-12-24T05:58:03.395Z,8.67
2018-12-24T06:00:32.296Z,11.57
2018-12-24T06:03:01.071Z,6.03
2018-12-24T06:05:30.701Z,13.17
2018-12-24T06:07:59.534Z,14.23
2018-12-24T06:10:28.327Z,11.60
2018-12-24T06:12:57.195Z,10.23
2018-12-24T06:15:25.964Z,8.33
2018-12-24T06:17:57.690Z,10.70
2018-12-24T06:20:24.929Z,8.77
2018-12-24T06:22:53.724Z,12.07
2018-12-24T06:25:23.245Z,12.43
2018-12-24T06:27:52.018Z,7.83
2018-12-24T06:30:20.795Z,9.37
2018-12-24T06:32:49.591Z,15.73
2018-12-24T06:35:18.392Z,9.00
2018-12-24T06:37:50.002Z,8.67
2018-12-24T06:40:18.862Z,10.67
2018-12-24T06:42:47.623Z,6.60
2018-12-24T06:45:16.415Z,10.07
2018-12-24T06:47:45.387Z,5.17
2018-12-24T06:50:15.723Z,6.60
2018-12-24T06:52:43.088Z,6.67
2018-12-24T06:55:12.555Z,8.73
2018-12-24T06:57:42.994Z,7.73
2018-12-24T07:00:11.831Z,6.10
2018-12-24T07:02:40.620Z,7.50
2018-12-24T07:05:09.521Z,16.33
2018-12-24T07:07:38.340Z,9.47
2018-12-24T07:10:07.335Z,12.30
2018-12-24T07:12:36.559Z,6.57
2018-12-24T07:15:05.369Z,7.23
2018-12-24T07:17:35.511Z,8.30
2018-12-24T07:20:04.279Z,11.80
2018-12-24T07:22:33.067Z,6.90
2018-12-24T07:25:02.484Z,10.27
2018-12-24T07:27:31.336Z,11.23
2018-12-24T07:30:00.127Z,10.63
2018-12-24T07:32:30.385Z,6.10
2018-12-24T07:34:59.172Z,9.60
2018-12-24T07:37:30.730Z,17.97
2018-12-24T07:39:59.562Z,10.90
2018-12-24T07:42:29.906Z,10.30
2018-12-24T07:44:59.399Z,9.70
2018-12-24T07:47:28.188Z,9.27
2018-12-24T07:49:57.103Z,13.07
2018-12-24T07:52:27.163Z,9.27
2018-12-24T07:54:56.869Z,13.07
2018-12-24T07:57:25.744Z,8.20
2018-12-24T07:59:55.056Z,8.57
2018-12-24T08:02:23.883Z,10.20
2018-12-24T08:04:54.358Z,10.83
2018-12-24T08:07:23.140Z,11.03
2018-12-24T08:09:52.043Z,9.90
2018-12-24T08:12:20.900Z,16.57
2018-12-24T08:14:49.670Z,9.37
2018-12-24T08:17:18.606Z,15.30
2018-12-24T08:19:48.035Z,11.10
2018-12-24T08:22:18.519Z,8.63
2018-12-24T08:24:47.373Z,12.40
2018-12-24T08:27:16.143Z,9.63
2018-12-24T08:29:44.951Z,10.50
2018-12-24T08:32:13.810Z,10.73
2018-12-24T08:34:43.930Z,9.60
2018-12-24T08:37:12.784Z,9.73
2018-12-24T08:39:41.555Z,7.30
2018-12-24T08:42:10.351Z,11.53
2018-12-24T08:44:41.838Z,13.40
2018-12-24T08:47:09.967Z,7.73
2018-12-24T08:49:38.778Z,9.63
2018-12-24T08:52:07.549Z,14.47
2018-12-24T08:54:36.587Z,12.23
2018-12-24T08:57:05.387Z,11.23
2018-12-24T08:59:35.203Z,8.50
2018-12-24T09:02:03.987Z,10.07
2018-12-24T09:04:32.783Z,15.07
2018-12-24T09:07:02.109Z,13.87
2018-12-24T09:09:31.005Z,13.17
2018-12-24T09:12:00.775Z,8.20
2018-12-24T09:14:29.614Z,9.30
2018-12-24T09:16:58.467Z,11.63
2018-12-24T09:19:27.268Z,11.07
2018-12-24T09:21:56.785Z,7.40
2018-12-24T09:24:26.035Z,7.73
2018-12-24T09:26:55.435Z,8.43
2018-12-24T09:29:25.396Z,12.90
2018-12-24T09:31:54.144Z,9.47
2018-12-24T09:34:23.759Z,14.90
2018-12-24T09:36:52.548Z,8.63
2018-12-24T09:39:21.438Z,10.97
2018-12-24T09:41:50.541Z,16.00
2018-12-24T09:44:19.372Z,10.60
2018-12-24T09:46:48.184Z,8.57
2018-12-24T09:49:16.966Z,14.63
2018-12-24T09:51:45.856Z,10.00
2018-12-24T09:54:14.749Z,9.63
2018-12-24T09:56:43.917Z,11.77
2018-12-24T09:59:13.714Z,10.57
2018-12-24T10:01:42.499Z,11.57
2018-12-24T10:04:20.779Z,13.93
2018-12-24T10:06:49.537Z,7.50
2018-12-24T10:09:18.998Z,10.70
2018-12-24T10:11:48.139Z,11.97
2018-12-24T10:14:16.908Z,10.60
2018-12-24T10:16:46.258Z,11.47
2018-12-24T10:19:15.915Z,12.90
2018-12-24T10:21:44.690Z,11.13
2018-12-24T10:24:13.571Z,15.33
2018-12-24T10:26:42.478Z,6.83
2018-12-24T10:29:11.311Z,11.10
2018-12-24T10:31:40.087Z,10.57
2018-12-24T10:34:08.876Z,7.80
2018-12-24T10:36:37.746Z,5.50
2018-12-24T10:39:08.820Z,5.60
2018-12-24T10:41:37.691Z,7.27
2018-12-24T10:44:07.515Z,6.37
2018-12-24T10:46:36.369Z,8.97
2018-12-24T10:49:05.174Z,6.30
2018-12-24T10:51:34.568Z,5.47
2018-12-24T10:54:03.381Z,5.10
2018-12-24T10:56:32.270Z,2.80
2018-12-24T10:59:02.043Z,5.53
2018-12-24T11:01:30.896Z,4.10
2018-12-24T11:03:59.680Z,5.23
2018-12-24T11:06:29.146Z,8.77
2018-12-24T11:08:57.914Z,8.87
2018-12-24T11:11:27.776Z,5.10
2018-12-24T11:13:56.554Z,7.80
2018-12-24T11:16:26.162Z,3.50
2018-12-24T11:18:56.259Z,3.83
2018-12-24T11:21:28.291Z,3.70
2018-12-24T11:23:59.172Z,7.50
2018-12-24T11:26:28.013Z,5.17
2018-12-24T11:28:56.870Z,4.90
2018-12-24T11:31:25.711Z,4.20
2018-12-24T11:33:54.549Z,2.80
2018-12-24T11:36:23.343Z,2.00
2018-12-24T11:38:52.117Z,4.60
2018-12-24T11:41:21.014Z,4.67
2018-12-24T11:43:51.864Z,7.23
2018-12-24T11:46:20.661Z,4.40
2018-12-24T11:48:49.463Z,3.00
2018-12-24T11:51:18.297Z,2.20
2018-12-24T11:53:48.151Z,2.33
2018-12-24T11:56:17.648Z,2.10
2018-12-24T11:58:46.456Z,2.70
2018-12-24T12:01:15.620Z,2.97
2018-12-24T12:03:44.488Z,1.60
2018-12-24T12:06:19.639Z,3.57
2018-12-24T12:08:43.203Z,5.03
2018-12-24T12:11:12.010Z,1.80
2018-12-24T12:13:40.797Z,4.83
2018-12-24T12:16:10.690Z,2.70
2018-12-24T12:18:39.491Z,3.57
2018-12-24T12:21:08.339Z,4.83
2018-12-24T12:23:38.220Z,5.90
2018-12-24T12:26:06.999Z,5.33
2018-12-24T12:28:36.156Z,4.50
2018-12-24T12:31:05.228Z,3.90
2018-12-24T12:33:36.015Z,4.17
2018-12-24T12:36:04.964Z,2.93
2018-12-24T12:38:33.751Z,4.33
2018-12-24T12:41:02.584Z,3.40
2018-12-24T12:43:32.096Z,2.13
2018-12-24T12:46:02.760Z,5.03
2018-12-24T12:48:31.606Z,3.63
2018-12-24T12:51:00.394Z,2.10
2018-12-24T12:53:29.288Z,2.40
2018-12-24T12:55:58.043Z,4.53
2018-12-24T12:58:26.879Z,2.33
2018-12-24T13:00:55.665Z,2.13
2018-12-24T13:03:25.892Z,4.67
2018-12-24T13:05:54.753Z,4.00
2018-12-24T13:08:23.683Z,2.47
2018-12-24T13:10:52.533Z,1.57
2018-12-24T13:13:21.424Z,4.27
2018-12-24T13:15:50.208Z,2.50
2018-12-24T13:18:19.439Z,2.70
2018-12-24T13:20:48.259Z,2.20
2018-12-24T13:23:17.085Z,5.10
2018-12-24T13:25:48.025Z,9.00
2018-12-24T13:28:16.822Z,2.80
2018-12-24T13:30:45.665Z,2.07
2018-12-24T13:33:14.542Z,3.57
2018-12-24T13:35:46.149Z,7.87
2018-12-24T13:38:15.017Z,1.80
2018-12-24T13:40:43.732Z,4.77
2018-12-24T13:43:13.518Z,2.13
2018-12-24T13:45:42.352Z,2.50
2018-12-24T13:48:11.155Z,3.87
2018-12-24T13:50:40.094Z,3.17
2018-12-24T13:53:10.014Z,4.90
2018-12-24T13:55:39.710Z,2.63
2018-12-24T13:58:08.479Z,6.03
2018-12-24T14:00:37.347Z,3.77
2018-12-24T14:03:06.162Z,2.97
2018-12-24T14:05:35.996Z,4.63
2018-12-24T14:08:05.719Z,2.43
2018-12-24T14:10:34.507Z,3.17
2018-12-24T14:13:04.588Z,2.50
2018-12-24T14:15:33.984Z,5.77
2018-12-24T14:18:02.731Z,2.83
2018-12-24T14:20:31.540Z,4.40
2018-12-24T14:23:00.372Z,3.70
2018-12-24T14:25:30.463Z,4.30
2018-12-24T14:27:59.216Z,4.87
2018-12-24T14:30:28.003Z,3.63
2018-12-24T14:32:57.275Z,4.73
2018-12-24T14:35:26.791Z,6.03
2018-12-24T14:37:55.572Z,3.60
2018-12-24T14:40:24.400Z,3.10
2018-12-24T14:42:53.186Z,3.73
2018-12-24T14:45:22.040Z,3.30
2018-12-24T14:47:50.845Z,3.03
2018-12-24T14:50:19.629Z,5.23
2018-12-24T14:52:49.484Z,6.73
2018-12-24T14:55:18.305Z,5.40
2018-12-24T14:57:48.132Z,9.43
2018-12-24T15:00:16.998Z,6.77
2018-12-24T15:02:45.888Z,5.70
2018-12-24T15:05:16.103Z,6.27
2018-12-24T15:07:44.894Z,6.00
2018-12-24T15:10:13.769Z,8.70
2018-12-24T15:12:42.604Z,5.70
2018-12-24T15:15:11.415Z,5.33
2018-12-24T15:17:40.891Z,5.90
2018-12-24T15:20:09.639Z,7.23
2018-12-24T15:22:38.564Z,9.57
2018-12-24T15:25:07.889Z,8.23
2018-12-24T15:27:37.338Z,5.77
2018-12-24T15:30:06.221Z,6.77
2018-12-24T15:32:36.544Z,6.77
2018-12-24T15:35:06.077Z,7.60
2018-12-24T15:37:34.887Z,4.87
2018-12-24T15:40:04.356Z,3.87
2018-12-24T15:42:35.064Z,6.93
2018-12-24T15:45:03.920Z,6.30
2018-12-24T15:47:33.242Z,5.67
2018-12-24T15:50:02.043Z,11.83
2018-12-24T15:52:30.901Z,11.23
2018-12-24T15:55:00.592Z,27.80
2018-12-24T15:57:30.466Z,31.70
2018-12-24T15:59:59.332Z,26.90
2018-12-24T16:02:28.727Z,25.73
2018-12-24T16:04:57.539Z,13.67
2018-12-24T16:07:27.043Z,19.27
2018-12-24T16:09:58.483Z,15.13
2018-12-24T16:12:27.321Z,17.47
2018-12-24T16:14:57.160Z,10.77
2018-12-24T16:17:26.404Z,17.37
2018-12-24T16:19:56.972Z,10.20
2018-12-24T16:22:25.819Z,4.77
2018-12-24T16:29:31.785Z,9.00
2018-12-24T16:32:00.622Z,6.40
2018-12-24T16:34:29.436Z,6.77
2018-12-24T16:36:58.559Z,7.63
2018-12-24T16:39:27.356Z,5.50
2018-12-24T16:41:56.170Z,9.10
2018-12-24T16:44:26.012Z,7.87
2018-12-24T16:46:59.607Z,7.10
2018-12-24T16:49:28.866Z,8.57
2018-12-24T16:51:57.660Z,11.10
2018-12-24T16:54:28.072Z,12.40
2018-12-24T16:56:58.676Z,9.50
2018-12-24T16:59:27.475Z,12.57
2018-12-24T17:01:56.870Z,10.93
2018-12-24T17:04:25.665Z,47.77
2018-12-24T17:06:54.599Z,48.13
2018-12-24T17:09:23.737Z,26.93
2018-12-24T17:11:53.280Z,51.23
2018-12-24T17:14:22.102Z,32.57
2018-12-24T17:16:50.976Z,18.00
2018-12-24T17:19:20.399Z,11.97
2018-12-24T17:21:49.208Z,10.30
2018-12-24T17:24:18.779Z,13.87
2018-12-24T17:26:47.627Z,15.17
2018-12-24T17:29:17.991Z,22.17
2018-12-24T17:31:46.787Z,15.13
2018-12-24T17:34:17.631Z,13.10
2018-12-24T17:36:46.463Z,11.30
2018-12-24T17:39:15.251Z,12.90
2018-12-24T17:41:44.111Z,13.63
2018-12-24T17:44:13.012Z,11.93
2018-12-24T17:46:42.191Z,13.83
2018-12-24T17:49:11.007Z,15.23
2018-12-24T17:51:40.684Z,14.83
2018-12-24T17:54:09.458Z,16.57
2018-12-24T17:56:39.263Z,16.67
2018-12-24T17:59:09.023Z,18.77
2018-12-24T18:01:39.287Z,17.73
2018-12-24T18:04:09.205Z,19.63
2018-12-24T18:06:37.787Z,25.57
2018-12-24T18:09:08.071Z,31.67
2018-12-24T18:11:36.895Z,34.60
2018-12-24T18:14:09.300Z,19.10
2018-12-24T18:19:42.193Z,17.63
2018-12-24T18:22:11.111Z,20.00
2018-12-24T18:24:39.839Z,18.60
2018-12-24T18:27:08.620Z,21.50
2018-12-24T18:29:37.443Z,28.17
2018-12-24T18:32:07.442Z,24.93
2018-12-24T18:34:36.253Z,22.23
2018-12-24T18:37:05.811Z,19.40
2018-12-24T18:39:35.802Z,21.60
2018-12-24T18:42:04.676Z,23.67
2018-12-24T18:44:34.264Z,137.67
2018-12-24T18:47:03.159Z,77.23
2018-12-24T18:49:32.044Z,63.23
2018-12-24T18:52:01.380Z,41.83
2018-12-24T18:54:30.767Z,38.97
2018-12-24T18:56:59.587Z,38.83
2018-12-24T18:59:28.965Z,35.07
2018-12-24T19:01:57.747Z,42.60
2018-12-24T19:04:27.288Z,36.73
2018-12-24T19:06:56.115Z,38.47
2018-12-24T19:09:24.964Z,31.50
2018-12-24T19:11:53.841Z,42.57
2018-12-24T19:14:23.203Z,37.33
2018-12-24T19:16:54.215Z,35.30
2018-12-24T19:19:23.043Z,39.60
2018-12-24T19:21:51.871Z,35.37
2018-12-24T19:24:20.691Z,34.07
2018-12-24T19:26:50.826Z,27.23
2018-12-24T19:29:20.298Z,28.50
2018-12-24T19:31:49.106Z,30.17
2018-12-24T19:34:17.898Z,28.20
2018-12-24T19:36:46.805Z,24.97
2018-12-24T19:39:15.615Z,27.97
2018-12-24T19:41:44.762Z,46.47
2018-12-24T19:44:13.555Z,48.67
2018-12-24T19:46:42.339Z,25.27
2018-12-24T19:49:11.130Z,23.33
2018-12-24T19:51:39.984Z,19.87
2018-12-24T19:54:09.791Z,24.97
2018-12-24T19:56:39.970Z,24.03
2018-12-24T19:59:08.907Z,21.27
2018-12-24T20:01:37.839Z,17.10
2018-12-24T20:04:06.595Z,19.43
2018-12-24T20:06:36.651Z,18.90
2018-12-24T20:09:06.908Z,19.40
2018-12-24T20:11:35.687Z,21.20
2018-12-24T20:14:04.559Z,21.50
2018-12-24T20:16:33.443Z,16.00
2018-12-24T20:19:02.331Z,21.03
2018-12-24T20:21:31.248Z,20.00
2018-12-24T20:24:00.112Z,17.97
2018-12-24T20:26:29.010Z,23.33
2018-12-24T20:28:57.831Z,23.50
2018-12-24T20:31:27.146Z,18.10
2018-12-24T20:33:56.093Z,18.33
2018-12-24T20:36:26.294Z,21.63
2018-12-24T20:38:56.119Z,21.77
2018-12-24T20:41:24.908Z,24.27
2018-12-24T20:43:56.790Z,22.73
2018-12-24T20:46:25.579Z,22.23
2018-12-24T20:48:54.423Z,23.90
2018-12-24T20:51:23.903Z,18.13
2018-12-24T20:53:54.392Z,25.33
2018-12-24T20:56:23.254Z,28.13
2018-12-24T20:58:52.827Z,36.97
2018-12-24T21:01:21.615Z,26.50
2018-12-24T21:03:50.419Z,21.87
2018-12-24T21:06:19.203Z,19.70
2018-12-24T21:08:48.030Z,20.73
2018-12-24T21:11:16.867Z,21.70
2018-12-24T21:13:45.695Z,23.17
2018-12-24T21:16:14.877Z,17.67
2018-12-24T21:18:44.632Z,27.60
2018-12-24T21:21:15.091Z,21.13
2018-12-24T21:23:43.943Z,24.80
2018-12-24T21:26:13.271Z,19.53
2018-12-24T21:28:42.103Z,15.50
2018-12-24T21:31:11.079Z,18.87
2018-12-24T21:33:39.870Z,18.43
2018-12-24T21:36:08.655Z,15.23
2018-12-24T21:38:37.456Z,20.93
2018-12-24T21:41:06.898Z,24.57
2018-12-24T21:43:35.951Z,25.60
2018-12-24T21:46:04.750Z,19.47
2018-12-24T21:48:34.102Z,20.40
2018-12-24T21:51:02.999Z,16.80
2018-12-24T21:53:31.973Z,21.10
2018-12-24T21:56:02.285Z,17.30
2018-12-24T21:58:31.102Z,16.93
2018-12-24T22:00:59.888Z,17.30
2018-12-24T22:03:28.783Z,20.00
2018-12-24T22:05:57.598Z,31.63
2018-12-24T22:08:26.459Z,33.63
2018-12-24T22:10:56.194Z,26.27
2018-12-24T22:13:24.988Z,20.37
2018-12-24T22:15:55.102Z,22.30
2018-12-24T22:18:31.999Z,21.27
2018-12-24T22:20:52.879Z,18.43
2018-12-24T22:23:21.684Z,17.83
2018-12-24T22:25:51.050Z,15.33
2018-12-24T22:28:19.892Z,22.27
2018-12-24T22:30:48.734Z,45.40
2018-12-24T22:33:17.560Z,36.23
2018-12-24T22:35:46.405Z,20.23
2018-12-24T22:38:15.271Z,14.97
2018-12-24T22:40:45.575Z,19.23
2018-12-24T22:43:14.418Z,23.33
2018-12-24T22:45:43.191Z,21.77
2018-12-24T22:48:12.043Z,20.17
2018-12-24T22:50:41.530Z,21.90
2018-12-24T22:53:11.375Z,15.33
2018-12-24T22:55:40.224Z,18.33
2018-12-24T22:58:09.621Z,13.47
2018-12-24T23:00:44.134Z,17.90
2018-12-24T23:03:12.975Z,15.20
2018-12-24T23:05:43.864Z,19.70
2018-12-24T23:08:10.735Z,14.80
2018-12-24T23:10:39.607Z,14.80
2018-12-24T23:13:08.459Z,18.27
2018-12-24T23:15:37.368Z,15.30
2018-12-24T23:18:06.174Z,15.20
2018-12-24T23:20:35.798Z,14.40
2018-12-24T23:23:04.676Z,14.83
2018-12-24T23:25:34.471Z,21.27
2018-12-24T23:28:03.251Z,14.10
2018-12-24T23:30:32.110Z,17.13
2018-12-24T23:33:00.907Z,16.70
2018-12-24T23:35:33.512Z,16.00
2018-12-24T23:38:02.829Z,13.40
2018-12-24T23:40:32.082Z,18.50
2018-12-24T23:43:00.492Z,15.93
2018-12-24T23:45:30.257Z,16.80
2018-12-24T23:47:59.148Z,20.30
2018-12-24T23:50:27.938Z,16.03
2018-12-24T23:52:56.721Z,16.97
2018-12-24T23:55:28.339Z,14.27
2018-12-24T23:57:57.103Z,16.50
